This is the latest recevied weather packets stored in our database for station/object YO6FNF-10. If no packets are shown the sender has not sent any weather packets the latest 10 day(s).
| Time | Temp. | Humidity | Pressure | Rain* | Wind** | Luminosity | Snow |
|---|---|---|---|---|---|---|---|
| 1778005382 | 16.67° C | 46% | 1015.2 hPa | - | - | - | - |
| 1778004482 | 17.22° C | 50% | 1015 hPa | - | - | - | - |
| 1778003582 | 18.33° C | 46% | 1014.7 hPa | - | - | - | - |
| 1778002682 | 18.89° C | 44% | 1014.7 hPa | - | - | - | - |
| 1778001782 | 20.56° C | 40% | 1014.6 hPa | - | - | - | - |
| 1778000881 | 21.67° C | 37% | 1014.5 hPa | - | - | - | - |
| 1777999981 | 22.78° C | 28% | 1014.4 hPa | - | - | - | - |
| 1777999081 | 23.33° C | 27% | 1014.3 hPa | - | - | - | - |
| 1777998181 | 23.33° C | 25% | 1014.4 hPa | - | - | - | - |
| 1777997281 | 23.33° C | 29% | 1014.6 hPa | - | - | - | - |
| 1777996380 | 23.89° C | 26% | 1014.6 hPa | - | - | - | - |
| 1777995480 | 25° C | 23% | 1014.7 hPa | - | - | - | - |
| 1777994580 | 25.56° C | 22% | 1014.7 hPa | - | - | - | - |
| 1777993679 | 26.11° C | 21% | 1014.6 hPa | - | - | - | - |
| 1777958613 | 10° C | 65% | 1019.8 hPa | - | - | - | - |
| 1777957713 | 8.33° C | 70% | 1019.7 hPa | - | - | - | - |
| 1777956813 | 7.22° C | 74% | 1019.7 hPa | - | - | - | - |
| 1777955913 | 6.67° C | 73% | 1019.6 hPa | - | - | - | - |
| 1777955012 | 6.11° C | 75% | 1019.5 hPa | - | - | - | - |
| 1777954112 | 6.11° C | 76% | 1019.5 hPa | - | - | - | - |
| 1777953212 | 5.56° C | 75% | 1019.3 hPa | - | - | - | - |
| 1777952312 | 5.56° C | 73% | 1019.3 hPa | - | - | - | - |
| 1777951412 | 5.56° C | 74% | 1019.2 hPa | - | - | - | - |
| 1777950511 | 5.56° C | 71% | 1019.2 hPa | - | - | - | - |
| 1777949611 | 5.56° C | 69% | 1019 hPa | - | - | - | - |
* Rain since midnight (hover to see other rain measurements)
** Current wind speed in m/s (hover to see current wind gust speed)